sensor_id;sensor_type;location;lat;lon;timestamp;pressure;altitude;pressure_sealevel;temperature;humidity
54270;BME280;40181;51.560;13.000;2023-04-06T00:01:28;101210.38;;;4.75;63.43
54270;BME280;40181;51.560;13.000;2023-04-06T00:03:57;101209.88;;;4.82;62.98
54270;BME280;40181;51.560;13.000;2023-04-06T00:06:29;101205.94;;;4.73;63.24
54270;BME280;40181;51.560;13.000;2023-04-06T00:08:58;101205.88;;;4.71;63.07
54270;BME280;40181;51.560;13.000;2023-04-06T00:11:28;101214.81;;;4.58;63.38
54270;BME280;40181;51.560;13.000;2023-04-06T00:13:57;101218.81;;;4.51;63.93
54270;BME280;40181;51.560;13.000;2023-04-06T00:16:26;101221.72;;;4.39;64.28
54270;BME280;40181;51.560;13.000;2023-04-06T00:18:55;101220.13;;;4.25;65.65
54270;BME280;40181;51.560;13.000;2023-04-06T00:21:24;101217.06;;;3.81;67.23
54270;BME280;40181;51.560;13.000;2023-04-06T00:23:56;101207.13;;;3.90;67.49
54270;BME280;40181;51.560;13.000;2023-04-06T00:26:25;101206.09;;;4.05;67.19
54270;BME280;40181;51.560;13.000;2023-04-06T00:28:54;101202.41;;;4.18;66.55
54270;BME280;40181;51.560;13.000;2023-04-06T00:31:24;101205.78;;;4.15;66.25
54270;BME280;40181;51.560;13.000;2023-04-06T00:33:53;101205.22;;;4.04;66.76
54270;BME280;40181;51.560;13.000;2023-04-06T00:36:22;101203.31;;;4.18;65.64
54270;BME280;40181;51.560;13.000;2023-04-06T00:38:51;101195.19;;;4.12;65.96
54270;BME280;40181;51.560;13.000;2023-04-06T00:41:23;101201.59;;;4.19;65.66
54270;BME280;40181;51.560;13.000;2023-04-06T00:43:53;101215.53;;;3.68;66.70
54270;BME280;40181;51.560;13.000;2023-04-06T00:46:22;101210.56;;;3.89;66.76
54270;BME280;40181;51.560;13.000;2023-04-06T00:48:51;101202.09;;;3.77;67.32
54270;BME280;40181;51.560;13.000;2023-04-06T00:51:21;101201.03;;;3.90;66.43
54270;BME280;40181;51.560;13.000;2023-04-06T00:53:50;101202.31;;;3.98;66.05
54270;BME280;40181;51.560;13.000;2023-04-06T00:56:19;101202.50;;;3.84;66.30
54270;BME280;40181;51.560;13.000;2023-04-06T00:58:51;101206.16;;;3.88;66.03
54270;BME280;40181;51.560;13.000;2023-04-06T01:01:20;101202.81;;;3.91;65.68
54270;BME280;40181;51.560;13.000;2023-04-06T01:03:51;101201.97;;;4.08;65.20
54270;BME280;40181;51.560;13.000;2023-04-06T01:06:20;101203.84;;;3.94;65.12
54270;BME280;40181;51.560;13.000;2023-04-06T01:08:49;101194.59;;;3.99;65.44
54270;BME280;40181;51.560;13.000;2023-04-06T01:11:19;101193.78;;;4.00;64.76
54270;BME280;40181;51.560;13.000;2023-04-06T01:13:51;101196.16;;;3.96;65.09
54270;BME280;40181;51.560;13.000;2023-04-06T01:16:20;101204.44;;;3.88;65.42
54270;BME280;40181;51.560;13.000;2023-04-06T01:18:49;101189.72;;;4.06;65.04
54270;BME280;40181;51.560;13.000;2023-04-06T01:21:18;101197.44;;;4.04;65.09
54270;BME280;40181;51.560;13.000;2023-04-06T01:23:50;101192.59;;;3.94;65.51
54270;BME280;40181;51.560;13.000;2023-04-06T01:26:19;101194.72;;;3.84;65.82
54270;BME280;40181;51.560;13.000;2023-04-06T01:28:48;101195.25;;;3.95;65.70
54270;BME280;40181;51.560;13.000;2023-04-06T01:31:17;101188.81;;;4.05;65.43
54270;BME280;40181;51.560;13.000;2023-04-06T01:33:46;101188.03;;;3.90;66.28
54270;BME280;40181;51.560;13.000;2023-04-06T01:36:15;101188.84;;;3.88;66.96
54270;BME280;40181;51.560;13.000;2023-04-06T01:38:44;101182.84;;;3.90;67.64
54270;BME280;40181;51.560;13.000;2023-04-06T01:41:16;101193.91;;;3.85;67.98
54270;BME280;40181;51.560;13.000;2023-04-06T01:43:47;101192.38;;;3.72;68.46
54270;BME280;40181;51.560;13.000;2023-04-06T01:46:19;101199.22;;;3.54;69.22
54270;BME280;40181;51.560;13.000;2023-04-06T01:48:48;101189.94;;;3.59;70.21
54270;BME280;40181;51.560;13.000;2023-04-06T01:51:17;101189.41;;;3.65;70.35
54270;BME280;40181;51.560;13.000;2023-04-06T01:53:46;101180.56;;;3.44;72.16
54270;BME280;40181;51.560;13.000;2023-04-06T01:56:18;101201.56;;;3.32;73.24
54270;BME280;40181;51.560;13.000;2023-04-06T01:58:47;101177.38;;;3.34;73.19
54270;BME280;40181;51.560;13.000;2023-04-06T02:01:16;101180.78;;;3.32;73.36
54270;BME280;40181;51.560;13.000;2023-04-06T02:03:45;101176.41;;;3.15;74.16
54270;BME280;40181;51.560;13.000;2023-04-06T02:06:14;101179.31;;;3.04;74.03
54270;BME280;40181;51.560;13.000;2023-04-06T02:08:43;101180.69;;;3.14;73.78
54270;BME280;40181;51.560;13.000;2023-04-06T02:11:12;101180.63;;;3.13;73.19
54270;BME280;40181;51.560;13.000;2023-04-06T02:13:44;101181.25;;;3.09;72.44
54270;BME280;40181;51.560;13.000;2023-04-06T02:16:13;101177.63;;;3.22;71.57
54270;BME280;40181;51.560;13.000;2023-04-06T02:18:42;101175.31;;;2.95;72.72
54270;BME280;40181;51.560;13.000;2023-04-06T02:21:11;101181.00;;;3.04;71.79
54270;BME280;40181;51.560;13.000;2023-04-06T02:23:45;101171.06;;;3.12;71.43
54270;BME280;40181;51.560;13.000;2023-04-06T02:26:14;101176.16;;;3.10;70.88
54270;BME280;40181;51.560;13.000;2023-04-06T02:28:46;101172.06;;;2.51;72.47
54270;BME280;40181;51.560;13.000;2023-04-06T02:31:15;101177.59;;;2.42;72.92
54270;BME280;40181;51.560;13.000;2023-04-06T02:33:44;101183.00;;;2.45;72.65
54270;BME280;40181;51.560;13.000;2023-04-06T02:36:13;101181.63;;;2.52;72.28
54270;BME280;40181;51.560;13.000;2023-04-06T02:38:42;101181.44;;;2.63;71.70
54270;BME280;40181;51.560;13.000;2023-04-06T02:41:11;101179.59;;;2.46;72.24
54270;BME280;40181;51.560;13.000;2023-04-06T02:43:40;101177.53;;;2.40;72.21
54270;BME280;40181;51.560;13.000;2023-04-06T02:46:12;101182.63;;;2.39;72.47
54270;BME280;40181;51.560;13.000;2023-04-06T02:48:41;101179.69;;;2.32;73.06
54270;BME280;40181;51.560;13.000;2023-04-06T02:51:10;101179.59;;;2.16;73.08
54270;BME280;40181;51.560;13.000;2023-04-06T02:53:39;101185.72;;;2.01;73.68
54270;BME280;40181;51.560;13.000;2023-04-06T02:56:08;101194.28;;;2.00;74.07
54270;BME280;40181;51.560;13.000;2023-04-06T02:58:37;101189.28;;;1.88;74.01
54270;BME280;40181;51.560;13.000;2023-04-06T03:01:06;101176.56;;;2.08;73.59
54270;BME280;40181;51.560;13.000;2023-04-06T03:03:37;101186.25;;;1.81;74.54
54270;BME280;40181;51.560;13.000;2023-04-06T03:06:06;101184.50;;;1.66;75.32
54270;BME280;40181;51.560;13.000;2023-04-06T03:08:35;101183.72;;;1.67;75.60
54270;BME280;40181;51.560;13.000;2023-04-06T03:11:04;101187.63;;;1.45;76.40
54270;BME280;40181;51.560;13.000;2023-04-06T03:13:33;101183.44;;;1.62;75.61
54270;BME280;40181;51.560;13.000;2023-04-06T03:16:04;101185.69;;;1.71;75.40
54270;BME280;40181;51.560;13.000;2023-04-06T03:18:36;101190.06;;;1.72;75.54
54270;BME280;40181;51.560;13.000;2023-04-06T03:21:05;101190.41;;;1.63;75.83
54270;BME280;40181;51.560;13.000;2023-04-06T03:23:34;101190.94;;;1.73;76.16
54270;BME280;40181;51.560;13.000;2023-04-06T03:26:03;101194.47;;;1.16;78.48
54270;BME280;40181;51.560;13.000;2023-04-06T03:28:32;101183.03;;;1.41;78.26
54270;BME280;40181;51.560;13.000;2023-04-06T03:31:02;101193.78;;;1.47;77.67
54270;BME280;40181;51.560;13.000;2023-04-06T03:33:31;101194.66;;;1.48;77.93
54270;BME280;40181;51.560;13.000;2023-04-06T03:36:03;101186.09;;;1.49;77.78
54270;BME280;40181;51.560;13.000;2023-04-06T03:38:33;101184.75;;;1.41;78.38
54270;BME280;40181;51.560;13.000;2023-04-06T03:41:02;101189.13;;;1.42;78.54
54270;BME280;40181;51.560;13.000;2023-04-06T03:43:31;101193.13;;;1.51;78.39
54270;BME280;40181;51.560;13.000;2023-04-06T03:46:00;101191.06;;;1.46;78.16
54270;BME280;40181;51.560;13.000;2023-04-06T03:48:29;101189.03;;;1.55;78.28
54270;BME280;40181;51.560;13.000;2023-04-06T03:50:58;101193.53;;;1.58;78.25
54270;BME280;40181;51.560;13.000;2023-04-06T03:53:30;101200.66;;;1.62;78.27
54270;BME280;40181;51.560;13.000;2023-04-06T03:55:59;101192.97;;;1.48;79.29
54270;BME280;40181;51.560;13.000;2023-04-06T03:58:28;101195.31;;;1.59;78.85
54270;BME280;40181;51.560;13.000;2023-04-06T04:00:57;101205.06;;;1.63;78.73
54270;BME280;40181;51.560;13.000;2023-04-06T04:03:26;101204.69;;;1.28;79.93
54270;BME280;40181;51.560;13.000;2023-04-06T04:05:55;101204.31;;;1.50;79.72
54270;BME280;40181;51.560;13.000;2023-04-06T04:08:27;101206.34;;;1.41;79.96
54270;BME280;40181;51.560;13.000;2023-04-06T04:10:56;101218.28;;;1.39;80.67
54270;BME280;40181;51.560;13.000;2023-04-06T04:13:25;101208.13;;;1.42;80.53
54270;BME280;40181;51.560;13.000;2023-04-06T04:15:54;101203.03;;;1.44;79.97
54270;BME280;40181;51.560;13.000;2023-04-06T04:18:23;101208.19;;;1.29;80.82
54270;BME280;40181;51.560;13.000;2023-04-06T04:20:52;101210.66;;;1.27;80.94
54270;BME280;40181;51.560;13.000;2023-04-06T04:23:21;101207.31;;;1.43;80.59
54270;BME280;40181;51.560;13.000;2023-04-06T04:25:53;101218.28;;;1.39;81.03
54270;BME280;40181;51.560;13.000;2023-04-06T04:28:22;101210.19;;;1.19;81.16
54270;BME280;40181;51.560;13.000;2023-04-06T04:30:51;101218.94;;;1.21;81.44
54270;BME280;40181;51.560;13.000;2023-04-06T04:33:20;101221.81;;;1.26;81.00
54270;BME280;40181;51.560;13.000;2023-04-06T04:35:49;101212.78;;;1.19;81.57
54270;BME280;40181;51.560;13.000;2023-04-06T04:38:18;101210.16;;;1.33;81.12
54270;BME280;40181;51.560;13.000;2023-04-06T04:40:47;101214.00;;;1.11;81.57
54270;BME280;40181;51.560;13.000;2023-04-06T04:43:19;101213.16;;;1.26;81.59
54270;BME280;40181;51.560;13.000;2023-04-06T04:45:48;101212.66;;;1.31;81.21
54270;BME280;40181;51.560;13.000;2023-04-06T04:48:18;101204.75;;;1.15;81.47
54270;BME280;40181;51.560;13.000;2023-04-06T04:50:47;101211.34;;;0.96;82.83
54270;BME280;40181;51.560;13.000;2023-04-06T04:53:16;101214.41;;;1.04;83.00
54270;BME280;40181;51.560;13.000;2023-04-06T04:55:45;101213.44;;;1.02;83.35
54270;BME280;40181;51.560;13.000;2023-04-06T04:58:14;101219.69;;;0.92;84.35
54270;BME280;40181;51.560;13.000;2023-04-06T05:00:47;101210.34;;;0.94;83.94
54270;BME280;40181;51.560;13.000;2023-04-06T05:03:19;101216.19;;;1.05;83.57
54270;BME280;40181;51.560;13.000;2023-04-06T05:05:50;101215.91;;;1.14;82.96
54270;BME280;40181;51.560;13.000;2023-04-06T05:08:19;101217.50;;;0.98;83.28
54270;BME280;40181;51.560;13.000;2023-04-06T05:10:49;101226.66;;;1.06;82.86
54270;BME280;40181;51.560;13.000;2023-04-06T05:13:18;101221.03;;;1.27;81.37
54270;BME280;40181;51.560;13.000;2023-04-06T05:15:50;101215.75;;;1.26;81.77
54270;BME280;40181;51.560;13.000;2023-04-06T05:18:19;101220.44;;;1.18;81.69
54270;BME280;40181;51.560;13.000;2023-04-06T05:20:48;101225.34;;;1.13;82.12
54270;BME280;40181;51.560;13.000;2023-04-06T05:23:17;101223.44;;;1.10;82.19
54270;BME280;40181;51.560;13.000;2023-04-06T05:25:46;101227.34;;;1.04;82.75
54270;BME280;40181;51.560;13.000;2023-04-06T05:28:15;101222.06;;;1.16;82.81
54270;BME280;40181;51.560;13.000;2023-04-06T05:30:44;101224.47;;;0.99;83.74
54270;BME280;40181;51.560;13.000;2023-04-06T05:33:16;101226.94;;;1.11;82.75
54270;BME280;40181;51.560;13.000;2023-04-06T05:35:45;101221.47;;;1.06;82.78
54270;BME280;40181;51.560;13.000;2023-04-06T05:38:14;101228.56;;;1.09;83.59
54270;BME280;40181;51.560;13.000;2023-04-06T05:40:43;101220.78;;;1.09;83.33
54270;BME280;40181;51.560;13.000;2023-04-06T05:43:12;101229.06;;;1.32;83.50
54270;BME280;40181;51.560;13.000;2023-04-06T05:45:44;101214.94;;;1.55;82.45
54270;BME280;40181;51.560;13.000;2023-04-06T05:48:15;101225.78;;;1.63;82.04
54270;BME280;40181;51.560;13.000;2023-04-06T05:50:48;101220.88;;;1.68;81.89
54270;BME280;40181;51.560;13.000;2023-04-06T05:53:18;101225.84;;;1.64;81.65
54270;BME280;40181;51.560;13.000;2023-04-06T05:55:47;101225.44;;;1.72;81.44
54270;BME280;40181;51.560;13.000;2023-04-06T05:58:16;101225.00;;;1.79;81.07
54270;BME280;40181;51.560;13.000;2023-04-06T06:00:45;101240.91;;;1.42;82.37
54270;BME280;40181;51.560;13.000;2023-04-06T06:03:17;101234.59;;;1.66;82.24
54270;BME280;40181;51.560;13.000;2023-04-06T06:05:47;101230.78;;;1.75;82.07
54270;BME280;40181;51.560;13.000;2023-04-06T06:08:17;101228.00;;;1.57;82.21
54270;BME280;40181;51.560;13.000;2023-04-06T06:10:46;101237.25;;;1.82;81.61
54270;BME280;40181;51.560;13.000;2023-04-06T06:13:15;101240.41;;;1.91;82.05
54270;BME280;40181;51.560;13.000;2023-04-06T06:15:46;101233.09;;;1.70;82.42
54270;BME280;40181;51.560;13.000;2023-04-06T06:18:18;101238.28;;;1.70;82.79
54270;BME280;40181;51.560;13.000;2023-04-06T06:20:47;101234.41;;;1.92;82.63
54270;BME280;40181;51.560;13.000;2023-04-06T06:23:16;101235.28;;;1.92;82.16
54270;BME280;40181;51.560;13.000;2023-04-06T06:25:45;101229.13;;;2.05;81.97
54270;BME280;40181;51.560;13.000;2023-04-06T06:28:14;101229.75;;;2.01;82.52
54270;BME280;40181;51.560;13.000;2023-04-06T06:30:43;101231.91;;;2.09;81.33
54270;BME280;40181;51.560;13.000;2023-04-06T06:33:12;101228.84;;;2.16;80.88
54270;BME280;40181;51.560;13.000;2023-04-06T06:35:44;101239.88;;;2.12;81.47
54270;BME280;40181;51.560;13.000;2023-04-06T06:38:13;101237.00;;;2.07;81.97
54270;BME280;40181;51.560;13.000;2023-04-06T06:40:42;101236.13;;;2.21;82.84
54270;BME280;40181;51.560;13.000;2023-04-06T06:43:12;101234.22;;;2.34;82.30
54270;BME280;40181;51.560;13.000;2023-04-06T06:45:41;101233.69;;;2.40;83.35
54270;BME280;40181;51.560;13.000;2023-04-06T06:48:10;101240.91;;;2.45;83.44
54270;BME280;40181;51.560;13.000;2023-04-06T06:50:39;101240.22;;;2.48;82.92
54270;BME280;40181;51.560;13.000;2023-04-06T06:53:12;101236.19;;;2.53;82.64
54270;BME280;40181;51.560;13.000;2023-04-06T06:55:41;101242.53;;;2.58;81.95
54270;BME280;40181;51.560;13.000;2023-04-06T06:58:10;101238.56;;;2.65;81.46
54270;BME280;40181;51.560;13.000;2023-04-06T07:00:39;101240.81;;;2.74;80.97
54270;BME280;40181;51.560;13.000;2023-04-06T07:03:08;101239.09;;;2.74;80.28
54270;BME280;40181;51.560;13.000;2023-04-06T07:05:37;101238.50;;;2.63;80.90
54270;BME280;40181;51.560;13.000;2023-04-06T07:08:06;101239.06;;;2.58;80.61
54270;BME280;40181;51.560;13.000;2023-04-06T07:10:38;101239.09;;;2.74;80.25
54270;BME280;40181;51.560;13.000;2023-04-06T07:13:07;101235.38;;;3.01;79.53
54270;BME280;40181;51.560;13.000;2023-04-06T07:15:36;101238.06;;;3.02;78.94
54270;BME280;40181;51.560;13.000;2023-04-06T07:18:06;101242.38;;;3.18;79.88
54270;BME280;40181;51.560;13.000;2023-04-06T07:20:35;101248.88;;;3.27;79.80
54270;BME280;40181;51.560;13.000;2023-04-06T07:23:04;101235.50;;;3.36;79.76
54270;BME280;40181;51.560;13.000;2023-04-06T07:25:33;101245.31;;;3.25;80.14
54270;BME280;40181;51.560;13.000;2023-04-06T07:28:05;101242.41;;;3.35;80.41
54270;BME280;40181;51.560;13.000;2023-04-06T07:30:34;101234.53;;;3.34;80.48
54270;BME280;40181;51.560;13.000;2023-04-06T07:33:03;101238.00;;;3.51;80.08
54270;BME280;40181;51.560;13.000;2023-04-06T07:35:33;101245.97;;;3.70;79.38
54270;BME280;40181;51.560;13.000;2023-04-06T07:38:03;101231.59;;;3.77;79.81
54270;BME280;40181;51.560;13.000;2023-04-06T07:40:32;101232.81;;;3.84;78.69
54270;BME280;40181;51.560;13.000;2023-04-06T07:43:01;101239.28;;;3.92;77.44
54270;BME280;40181;51.560;13.000;2023-04-06T07:45:33;101238.81;;;3.99;75.74
54270;BME280;40181;51.560;13.000;2023-04-06T07:48:02;101242.09;;;4.13;75.74
54270;BME280;40181;51.560;13.000;2023-04-06T07:50:31;101248.41;;;4.19;76.97
54270;BME280;40181;51.560;13.000;2023-04-06T07:53:00;101237.59;;;4.27;77.13
54270;BME280;40181;51.560;13.000;2023-04-06T07:55:29;101240.41;;;4.32;77.31
54270;BME280;40181;51.560;13.000;2023-04-06T07:57:58;101236.81;;;4.47;77.22
54270;BME280;40181;51.560;13.000;2023-04-06T08:00:30;101238.31;;;4.60;77.96
54270;BME280;40181;51.560;13.000;2023-04-06T08:02:59;101246.13;;;4.60;78.91
54270;BME280;40181;51.560;13.000;2023-04-06T08:05:28;101240.34;;;4.67;79.21
54270;BME280;40181;51.560;13.000;2023-04-06T08:07:57;101249.22;;;4.70;78.96
54270;BME280;40181;51.560;13.000;2023-04-06T08:10:26;101242.06;;;4.84;78.05
54270;BME280;40181;51.560;13.000;2023-04-06T08:12:55;101238.88;;;4.90;77.60
54270;BME280;40181;51.560;13.000;2023-04-06T08:15:24;101232.31;;;4.98;76.78
54270;BME280;40181;51.560;13.000;2023-04-06T08:17:55;101239.69;;;5.07;75.47
54270;BME280;40181;51.560;13.000;2023-04-06T08:20:25;101244.50;;;5.18;74.70
54270;BME280;40181;51.560;13.000;2023-04-06T08:22:54;101233.38;;;5.22;73.79
54270;BME280;40181;51.560;13.000;2023-04-06T08:25:23;101237.19;;;5.29;71.63
54270;BME280;40181;51.560;13.000;2023-04-06T08:27:52;101233.22;;;5.37;71.12
54270;BME280;40181;51.560;13.000;2023-04-06T08:30:21;101230.94;;;5.45;71.91
54270;BME280;40181;51.560;13.000;2023-04-06T08:32:50;101229.16;;;5.44;70.63
54270;BME280;40181;51.560;13.000;2023-04-06T08:35:22;101233.13;;;5.55;70.17
54270;BME280;40181;51.560;13.000;2023-04-06T08:37:51;101220.03;;;5.73;71.08
54270;BME280;40181;51.560;13.000;2023-04-06T08:40:20;101231.19;;;5.90;69.32
54270;BME280;40181;51.560;13.000;2023-04-06T08:42:50;101224.59;;;5.99;70.17
54270;BME280;40181;51.560;13.000;2023-04-06T08:45:22;101227.00;;;6.14;68.39
54270;BME280;40181;51.560;13.000;2023-04-06T08:47:52;101222.81;;;6.17;67.49
54270;BME280;40181;51.560;13.000;2023-04-06T08:50:25;101225.03;;;6.29;65.76
54270;BME280;40181;51.560;13.000;2023-04-06T08:52:55;101223.56;;;6.36;65.71
54270;BME280;40181;51.560;13.000;2023-04-06T08:55:24;101214.72;;;6.54;67.50
54270;BME280;40181;51.560;13.000;2023-04-06T08:57:55;101211.41;;;6.58;59.05
54270;BME280;40181;51.560;13.000;2023-04-06T09:00:25;101204.00;;;6.69;56.47
54270;BME280;40181;51.560;13.000;2023-04-06T09:02:55;101208.22;;;6.88;58.60
54270;BME280;40181;51.560;13.000;2023-04-06T09:05:27;101211.25;;;6.99;56.77
54270;BME280;40181;51.560;13.000;2023-04-06T09:07:56;101206.03;;;6.99;57.60
54270;BME280;40181;51.560;13.000;2023-04-06T09:10:26;101204.44;;;7.02;56.68
54270;BME280;40181;51.560;13.000;2023-04-06T09:13:03;101216.78;;;7.06;58.28
54270;BME280;40181;51.560;13.000;2023-04-06T09:15:33;101214.97;;;7.28;58.52
54270;BME280;40181;51.560;13.000;2023-04-06T09:18:02;101209.28;;;7.39;57.99
54270;BME280;40181;51.560;13.000;2023-04-06T09:20:34;101200.75;;;7.44;57.15
54270;BME280;40181;51.560;13.000;2023-04-06T09:23:03;101203.88;;;7.58;56.10
54270;BME280;40181;51.560;13.000;2023-04-06T09:25:32;101193.41;;;7.58;53.95
54270;BME280;40181;51.560;13.000;2023-04-06T09:28:03;101197.63;;;7.79;53.93
54270;BME280;40181;51.560;13.000;2023-04-06T09:30:33;101197.63;;;7.79;50.07
54270;BME280;40181;51.560;13.000;2023-04-06T09:33:03;101191.09;;;7.92;50.44
54270;BME280;40181;51.560;13.000;2023-04-06T09:35:35;101192.00;;;7.93;48.88
54270;BME280;40181;51.560;13.000;2023-04-06T09:38:11;101207.72;;;7.94;47.08
54270;BME280;40181;51.560;13.000;2023-04-06T09:40:48;101189.41;;;7.94;46.34
54270;BME280;40181;51.560;13.000;2023-04-06T09:43:24;101178.63;;;8.11;47.57
54270;BME280;40181;51.560;13.000;2023-04-06T09:45:53;101186.41;;;8.09;45.49
54270;BME280;40181;51.560;13.000;2023-04-06T09:48:24;101194.38;;;8.38;45.20
54270;BME280;40181;51.560;13.000;2023-04-06T09:50:59;101172.88;;;8.49;44.92
54270;BME280;40181;51.560;13.000;2023-04-06T09:53:33;101182.09;;;8.37;43.86
54270;BME280;40181;51.560;13.000;2023-04-06T09:56:08;101174.75;;;8.51;42.76
54270;BME280;40181;51.560;13.000;2023-04-06T09:58:41;101171.34;;;8.83;44.77
54270;BME280;40181;51.560;13.000;2023-04-06T10:01:15;101176.16;;;8.69;43.12
54270;BME280;40181;51.560;13.000;2023-04-06T10:03:48;101164.13;;;8.76;45.64
54270;BME280;40181;51.560;13.000;2023-04-06T10:06:28;101170.09;;;8.71;42.44
54270;BME280;40181;51.560;13.000;2023-04-06T10:09:04;101161.00;;;8.88;43.55
54270;BME280;40181;51.560;13.000;2023-04-06T10:11:34;101172.56;;;8.94;43.56
54270;BME280;40181;51.560;13.000;2023-04-06T10:14:04;101166.53;;;8.98;42.22
54270;BME280;40181;51.560;13.000;2023-04-06T10:16:34;101166.25;;;9.18;42.71
54270;BME280;40181;51.560;13.000;2023-04-06T10:19:09;101167.53;;;9.33;42.11
54270;BME280;40181;51.560;13.000;2023-04-06T10:21:45;101159.19;;;9.16;41.75
54270;BME280;40181;51.560;13.000;2023-04-06T10:24:18;101152.56;;;9.29;42.60
54270;BME280;40181;51.560;13.000;2023-04-06T10:26:57;101155.66;;;9.46;42.05
54270;BME280;40181;51.560;13.000;2023-04-06T10:29:26;101154.38;;;9.63;43.57
54270;BME280;40181;51.560;13.000;2023-04-06T10:31:56;101151.72;;;9.30;41.00
54270;BME280;40181;51.560;13.000;2023-04-06T10:34:34;101156.81;;;9.55;42.11
54270;BME280;40181;51.560;13.000;2023-04-06T10:37:13;101156.03;;;9.60;40.79
54270;BME280;40181;51.560;13.000;2023-04-06T10:39:47;101145.28;;;9.50;40.50
54270;BME280;40181;51.560;13.000;2023-04-06T10:42:24;101159.81;;;9.69;41.32
54270;BME280;40181;51.560;13.000;2023-04-06T10:44:53;101154.31;;;9.94;42.84
54270;BME280;40181;51.560;13.000;2023-04-06T10:47:22;101155.59;;;9.43;39.85
54270;BME280;40181;51.560;13.000;2023-04-06T10:49:51;101154.25;;;9.92;40.66
54270;BME280;40181;51.560;13.000;2023-04-06T10:52:22;101142.09;;;9.96;40.38
54270;BME280;40181;51.560;13.000;2023-04-06T10:54:52;101142.97;;;9.61;40.16
54270;BME280;40181;51.560;13.000;2023-04-06T10:57:27;101149.97;;;9.96;41.05
54270;BME280;40181;51.560;13.000;2023-04-06T10:59:58;101139.88;;;9.44;40.54
54270;BME280;40181;51.560;13.000;2023-04-06T11:02:27;101140.81;;;9.80;40.68
54270;BME280;40181;51.560;13.000;2023-04-06T11:04:56;101135.47;;;9.75;40.91
54270;BME280;40181;51.560;13.000;2023-04-06T11:07:29;101129.53;;;10.18;40.61
54270;BME280;40181;51.560;13.000;2023-04-06T11:09:58;101135.22;;;9.34;39.03
54270;BME280;40181;51.560;13.000;2023-04-06T11:12:27;101152.41;;;9.54;40.53
54270;BME280;40181;51.560;13.000;2023-04-06T11:14:58;101151.22;;;9.77;38.75
54270;BME280;40181;51.560;13.000;2023-04-06T11:17:30;101141.41;;;10.03;40.00
54270;BME280;40181;51.560;13.000;2023-04-06T11:20:01;101144.31;;;10.14;40.93
54270;BME280;40181;51.560;13.000;2023-04-06T11:22:34;101139.97;;;10.16;39.10
54270;BME280;40181;51.560;13.000;2023-04-06T11:25:06;101134.84;;;10.21;39.29
54270;BME280;40181;51.560;13.000;2023-04-06T11:27:37;101143.63;;;9.88;38.82
54270;BME280;40181;51.560;13.000;2023-04-06T11:30:08;101120.56;;;10.09;39.28
54270;BME280;40181;51.560;13.000;2023-04-06T11:32:39;101126.16;;;10.25;40.96
54270;BME280;40181;51.560;13.000;2023-04-06T11:35:19;101126.91;;;9.82;38.57
54270;BME280;40181;51.560;13.000;2023-04-06T11:37:52;101127.88;;;9.88;39.43
54270;BME280;40181;51.560;13.000;2023-04-06T11:40:21;101108.75;;;9.92;39.66
54270;BME280;40181;51.560;13.000;2023-04-06T11:42:53;101106.38;;;10.01;41.11
54270;BME280;40181;51.560;13.000;2023-04-06T11:45:23;101106.44;;;10.04;39.62
54270;BME280;40181;51.560;13.000;2023-04-06T11:47:56;101103.03;;;10.08;39.50
54270;BME280;40181;51.560;13.000;2023-04-06T11:50:32;101099.16;;;10.29;40.98
54270;BME280;40181;51.560;13.000;2023-04-06T11:53:04;101109.09;;;9.71;38.67
54270;BME280;40181;51.560;13.000;2023-04-06T11:55:37;101106.66;;;9.78;38.91
54270;BME280;40181;51.560;13.000;2023-04-06T11:58:10;101108.03;;;9.98;40.56
54270;BME280;40181;51.560;13.000;2023-04-06T12:00:39;101104.13;;;10.18;38.44
54270;BME280;40181;51.560;13.000;2023-04-06T12:03:10;101107.41;;;10.45;40.63
54270;BME280;40181;51.560;13.000;2023-04-06T12:05:39;101101.09;;;10.38;39.55
54270;BME280;40181;51.560;13.000;2023-04-06T12:08:11;101105.69;;;10.10;39.78
54270;BME280;40181;51.560;13.000;2023-04-06T12:10:40;101101.03;;;9.98;39.13
54270;BME280;40181;51.560;13.000;2023-04-06T12:13:09;101094.59;;;10.22;39.24
54270;BME280;40181;51.560;13.000;2023-04-06T12:15:38;101095.34;;;10.16;37.16
54270;BME280;40181;51.560;13.000;2023-04-06T12:18:07;101083.91;;;10.51;38.49
54270;BME280;40181;51.560;13.000;2023-04-06T12:20:36;101092.25;;;10.73;36.63
54270;BME280;40181;51.560;13.000;2023-04-06T12:23:05;101083.41;;;11.12;37.69
54270;BME280;40181;51.560;13.000;2023-04-06T12:25:38;101078.53;;;11.34;36.74
54270;BME280;40181;51.560;13.000;2023-04-06T12:28:08;101075.50;;;11.60;38.46
54270;BME280;40181;51.560;13.000;2023-04-06T12:30:37;101083.56;;;11.69;37.98
54270;BME280;40181;51.560;13.000;2023-04-06T12:33:07;101081.28;;;11.40;36.92
54270;BME280;40181;51.560;13.000;2023-04-06T12:35:36;101087.22;;;11.28;36.77
54270;BME280;40181;51.560;13.000;2023-04-06T12:38:06;101073.09;;;11.74;37.14
54270;BME280;40181;51.560;13.000;2023-04-06T12:40:39;101079.47;;;11.87;36.21
54270;BME280;40181;51.560;13.000;2023-04-06T12:43:08;101073.25;;;11.83;36.62
54270;BME280;40181;51.560;13.000;2023-04-06T12:45:38;101077.47;;;11.72;36.57
54270;BME280;40181;51.560;13.000;2023-04-06T12:48:08;101068.28;;;12.02;38.47
54270;BME280;40181;51.560;13.000;2023-04-06T12:50:37;101071.38;;;11.74;36.19
54270;BME280;40181;51.560;13.000;2023-04-06T12:53:06;101064.78;;;12.01;36.50
54270;BME280;40181;51.560;13.000;2023-04-06T12:55:35;101059.31;;;11.35;38.24
54270;BME280;40181;51.560;13.000;2023-04-06T12:58:06;101059.94;;;11.72;36.92
54270;BME280;40181;51.560;13.000;2023-04-06T13:00:35;101054.31;;;12.04;37.55
54270;BME280;40181;51.560;13.000;2023-04-06T13:03:04;101048.81;;;11.90;36.99